createdAt,value
2022-11-08T00:00:02.337Z,11.50
2022-11-08T00:02:33.492Z,11.50
2022-11-08T00:05:19.080Z,11.60
2022-11-08T00:08:04.699Z,11.50
2022-11-08T00:10:51.296Z,11.50
2022-11-08T00:13:36.830Z,11.60
2022-11-08T00:16:04.849Z,11.50
2022-11-08T00:18:32.706Z,11.50
2022-11-08T00:21:03.057Z,11.50
2022-11-08T00:23:31.214Z,11.50
2022-11-08T00:26:00.454Z,11.50
2022-11-08T00:28:28.350Z,11.40
2022-11-08T00:30:56.240Z,11.40
2022-11-08T00:33:24.248Z,11.40
2022-11-08T00:35:52.158Z,11.40
2022-11-08T00:38:20.236Z,11.40
2022-11-08T00:40:48.282Z,11.40
2022-11-08T00:43:17.623Z,11.40
2022-11-08T00:45:45.565Z,11.30
2022-11-08T00:48:15.932Z,11.20
2022-11-08T00:50:43.951Z,11.20
2022-11-08T00:53:11.846Z,11.10
2022-11-08T00:55:39.758Z,11.20
2022-11-08T00:58:07.582Z,11.10
2022-11-08T01:00:36.806Z,11.00
2022-11-08T01:03:19.917Z,11.00
2022-11-08T01:05:48.231Z,10.90
2022-11-08T01:08:16.411Z,11.00
2022-11-08T01:10:45.361Z,10.90
2022-11-08T01:13:13.888Z,10.90
2022-11-08T01:15:45.306Z,10.90
2022-11-08T01:18:15.219Z,10.90
2022-11-08T01:20:45.255Z,10.80
2022-11-08T01:23:14.368Z,10.80
2022-11-08T01:25:44.457Z,10.90
2022-11-08T01:28:12.854Z,10.90
2022-11-08T01:30:43.598Z,10.80
2022-11-08T01:33:12.429Z,10.80
2022-11-08T01:35:40.332Z,10.80
2022-11-08T01:38:09.550Z,10.70
2022-11-08T01:40:44.344Z,10.70
2022-11-08T01:43:36.669Z,10.70
2022-11-08T01:46:28.734Z,10.70
2022-11-08T01:49:06.177Z,10.60
2022-11-08T01:51:38.850Z,10.60
2022-11-08T01:54:11.282Z,10.60
2022-11-08T01:56:41.406Z,10.60
2022-11-08T01:59:12.535Z,10.50
2022-11-08T02:01:42.025Z,10.50
2022-11-08T02:04:11.231Z,10.50
2022-11-08T02:06:39.827Z,10.60
2022-11-08T02:09:11.169Z,10.70
2022-11-08T02:11:41.126Z,10.70
2022-11-08T02:14:09.335Z,10.70
2022-11-08T02:16:37.376Z,10.70
2022-11-08T02:19:11.008Z,10.80
2022-11-08T02:21:47.924Z,10.80
2022-11-08T02:24:18.290Z,10.80
2022-11-08T02:26:47.227Z,10.80
2022-11-08T02:29:30.397Z,10.80
2022-11-08T02:31:59.207Z,10.70
2022-11-08T02:34:48.454Z,10.70
2022-11-08T02:37:19.458Z,10.60
2022-11-08T02:39:48.918Z,10.60
2022-11-08T02:42:18.475Z,10.60
2022-11-08T02:44:46.336Z,10.60
2022-11-08T02:47:14.258Z,10.60
2022-11-08T02:49:42.358Z,10.50
2022-11-08T02:52:10.581Z,10.60
2022-11-08T02:54:38.476Z,10.60
2022-11-08T02:57:08.074Z,10.60
2022-11-08T02:59:35.945Z,10.60
2022-11-08T03:02:03.946Z,10.60
2022-11-08T03:04:59.988Z,10.50
2022-11-08T03:07:27.949Z,10.50
2022-11-08T03:09:55.811Z,10.50
2022-11-08T03:12:25.021Z,10.50
2022-11-08T03:14:53.042Z,10.50
2022-11-08T03:17:20.905Z,10.50
2022-11-08T03:19:48.749Z,10.50
2022-11-08T03:22:16.760Z,10.50
2022-11-08T03:24:44.585Z,10.50
2022-11-08T03:27:15.115Z,10.50
2022-11-08T03:29:44.245Z,10.50
2022-11-08T03:32:12.417Z,10.50
2022-11-08T03:34:40.335Z,10.50
2022-11-08T03:37:10.701Z,10.50
2022-11-08T03:39:38.621Z,10.50
2022-11-08T03:42:07.904Z,10.60
2022-11-08T03:44:35.780Z,10.60
2022-11-08T03:47:05.102Z,10.70
2022-11-08T03:49:32.954Z,10.70
2022-11-08T03:52:00.875Z,10.60
2022-11-08T03:54:28.780Z,10.60
2022-11-08T03:56:56.633Z,10.60
2022-11-08T03:59:24.497Z,10.50
2022-11-08T04:01:52.485Z,10.50
2022-11-08T04:04:22.042Z,10.40
2022-11-08T04:06:49.941Z,10.30
2022-11-08T04:09:21.524Z,10.20
2022-11-08T04:12:07.345Z,10.20
2022-11-08T04:14:52.808Z,10.20
2022-11-08T04:17:40.628Z,10.10
2022-11-08T04:20:29.067Z,10.20
2022-11-08T04:22:56.937Z,10.20
2022-11-08T04:25:24.817Z,10.10
2022-11-08T04:27:52.735Z,10.10
2022-11-08T04:30:20.616Z,10.00
2022-11-08T04:32:48.542Z,10.00
2022-11-08T04:35:17.927Z,10.00
2022-11-08T04:37:45.821Z,10.00
2022-11-08T04:40:14.511Z,9.90
2022-11-08T04:42:45.048Z,9.90
2022-11-08T04:45:12.931Z,9.80
2022-11-08T04:47:45.753Z,9.80
2022-11-08T04:50:17.638Z,9.80
2022-11-08T04:52:52.712Z,9.70
2022-11-08T04:55:20.613Z,9.70
2022-11-08T04:57:48.813Z,9.80
2022-11-08T05:00:18.055Z,9.80
2022-11-08T05:02:46.140Z,9.80
2022-11-08T05:05:14.091Z,9.70
2022-11-08T05:07:43.338Z,9.80
2022-11-08T05:10:11.495Z,9.70
2022-11-08T05:12:39.352Z,9.70
2022-11-08T05:15:10.533Z,9.70
2022-11-08T05:17:38.448Z,9.60
2022-11-08T05:20:24.915Z,9.60
2022-11-08T05:23:18.157Z,9.60
2022-11-08T05:25:46.303Z,9.50
2022-11-08T05:28:14.567Z,9.60
2022-11-08T05:30:42.629Z,9.50
2022-11-08T05:33:13.452Z,9.50
2022-11-08T05:35:41.263Z,9.50
2022-11-08T05:38:10.430Z,9.50
2022-11-08T05:40:38.323Z,9.50
2022-11-08T05:43:06.327Z,9.50
2022-11-08T05:45:34.262Z,9.50
2022-11-08T05:48:03.857Z,9.50
2022-11-08T05:50:32.823Z,9.40
2022-11-08T05:53:06.517Z,9.40
2022-11-08T05:55:35.858Z,9.40
2022-11-08T05:58:03.797Z,9.40
2022-11-08T06:00:31.917Z,9.40
2022-11-08T06:02:59.878Z,9.40
2022-11-08T06:05:27.823Z,9.40
2022-11-08T06:07:55.878Z,9.30
2022-11-08T06:10:23.769Z,9.30
2022-11-08T06:12:53.086Z,9.40
2022-11-08T06:15:20.972Z,9.40
2022-11-08T06:17:48.857Z,9.30
2022-11-08T06:20:16.873Z,9.40
2022-11-08T06:22:44.677Z,9.40
2022-11-08T06:25:13.498Z,9.40
2022-11-08T06:27:41.355Z,9.40
2022-11-08T06:30:11.783Z,9.40
2022-11-08T06:32:39.717Z,9.40
2022-11-08T06:35:08.299Z,9.50
2022-11-08T06:37:36.181Z,9.50
2022-11-08T06:40:04.151Z,9.50
2022-11-08T06:42:32.064Z,9.50
2022-11-08T06:44:59.889Z,9.60
2022-11-08T06:47:29.074Z,9.60
2022-11-08T06:49:57.102Z,9.70
2022-11-08T06:52:24.995Z,9.70
2022-11-08T06:54:52.958Z,9.70
2022-11-08T06:57:20.833Z,9.70
2022-11-08T06:59:48.742Z,9.80
2022-11-08T07:02:16.779Z,9.90
2022-11-08T07:04:46.032Z,10.00
2022-11-08T07:07:13.924Z,10.00
2022-11-08T07:09:41.791Z,10.00
2022-11-08T07:12:09.878Z,10.20
2022-11-08T07:14:37.718Z,10.60
2022-11-08T07:17:05.631Z,11.30
2022-11-08T07:19:33.561Z,12.10
2022-11-08T07:22:02.761Z,13.10
2022-11-08T07:24:32.728Z,14.10
2022-11-08T07:27:00.634Z,14.70
2022-11-08T07:29:28.493Z,14.70
2022-11-08T07:31:56.395Z,15.40
2022-11-08T07:34:24.630Z,16.40
2022-11-08T07:36:52.557Z,17.00
2022-11-08T07:39:21.720Z,17.90
2022-11-08T07:41:49.885Z,18.60
2022-11-08T07:44:17.767Z,18.50
2022-11-08T07:46:45.723Z,19.10
2022-11-08T07:49:13.597Z,19.10
2022-11-08T07:51:41.653Z,19.60
2022-11-08T07:54:09.490Z,20.40
2022-11-08T07:56:38.712Z,20.50
2022-11-08T07:59:06.641Z,21.30
2022-11-08T08:01:34.767Z,21.20
2022-11-08T08:04:02.672Z,21.40
2022-11-08T08:06:30.547Z,22.20
2022-11-08T08:08:58.404Z,21.70
2022-11-08T08:11:30.868Z,21.90
2022-11-08T08:14:02.662Z,21.80
2022-11-08T08:16:30.565Z,22.30
2022-11-08T08:18:58.442Z,21.70
2022-11-08T08:21:26.287Z,21.50
2022-11-08T08:23:54.165Z,21.70
2022-11-08T08:26:22.028Z,22.10
2022-11-08T08:28:49.891Z,22.30
2022-11-08T08:31:19.115Z,22.60
2022-11-08T08:33:47.028Z,22.30
2022-11-08T08:36:14.912Z,21.90
2022-11-08T08:38:44.772Z,22.10
2022-11-08T08:41:12.759Z,22.00
2022-11-08T08:43:40.631Z,22.20
2022-11-08T08:46:08.666Z,23.30
2022-11-08T08:48:38.812Z,24.70
2022-11-08T08:51:06.896Z,25.10
2022-11-08T08:53:34.825Z,24.60
2022-11-08T08:56:05.550Z,25.60
2022-11-08T08:58:33.575Z,25.80
2022-11-08T09:03:52.077Z,26.00
2022-11-08T09:06:19.920Z,25.50
2022-11-08T09:08:49.176Z,25.20
2022-11-08T09:11:17.334Z,24.20
2022-11-08T09:13:45.267Z,23.40
2022-11-08T09:16:14.258Z,23.10
2022-11-08T09:18:42.535Z,23.50
2022-11-08T09:21:12.011Z,23.00
2022-11-08T09:23:41.436Z,22.50
2022-11-08T09:26:09.449Z,22.60
2022-11-08T09:28:37.892Z,23.00
2022-11-08T09:31:08.291Z,22.60
2022-11-08T09:33:36.866Z,21.90
2022-11-08T09:36:06.510Z,21.20
2022-11-08T09:38:35.921Z,20.40
2022-11-08T09:41:43.580Z,19.90
2022-11-08T09:44:45.011Z,20.10
2022-11-08T09:47:18.685Z,20.30
2022-11-08T09:49:50.146Z,20.40
2022-11-08T09:52:24.582Z,21.40
2022-11-08T09:55:04.474Z,21.60
2022-11-08T09:57:47.413Z,22.00
2022-11-08T10:00:16.113Z,22.50
2022-11-08T10:02:44.108Z,22.20
2022-11-08T10:05:17.039Z,22.40
2022-11-08T10:07:51.590Z,22.40
2022-11-08T10:10:38.071Z,23.00
2022-11-08T10:13:13.942Z,24.00
2022-11-08T10:15:49.249Z,24.20
2022-11-08T10:18:40.985Z,23.80
2022-11-08T10:21:16.125Z,23.80
2022-11-08T10:23:46.013Z,23.00
2022-11-08T10:26:21.588Z,21.60
2022-11-08T10:28:55.890Z,20.50
2022-11-08T10:31:23.893Z,20.80
2022-11-08T10:33:54.512Z,21.00
2022-11-08T10:36:25.487Z,20.40
2022-11-08T10:39:01.919Z,20.00
2022-11-08T10:41:39.163Z,20.40
2022-11-08T10:44:16.761Z,21.30
2022-11-08T10:46:46.698Z,21.40
2022-11-08T10:49:19.441Z,21.30
2022-11-08T10:51:49.724Z,21.60
2022-11-08T10:54:56.542Z,21.00
2022-11-08T10:57:35.268Z,20.80
2022-11-08T11:00:18.684Z,20.50
2022-11-08T11:02:49.606Z,20.90
2022-11-08T11:05:29.395Z,20.70
2022-11-08T11:08:19.030Z,20.60
2022-11-08T11:10:48.757Z,20.60
2022-11-08T11:13:21.819Z,20.70
2022-11-08T11:15:51.998Z,20.90
2022-11-08T11:18:29.562Z,21.20
2022-11-08T11:21:08.344Z,22.20
2022-11-08T11:23:39.450Z,22.40
2022-11-08T11:26:08.556Z,22.00
2022-11-08T11:28:37.773Z,21.50
2022-11-08T11:31:17.429Z,21.50
2022-11-08T11:33:47.162Z,21.30
2022-11-08T11:36:20.281Z,21.30
2022-11-08T11:38:54.728Z,20.70
2022-11-08T11:41:29.605Z,20.30
2022-11-08T11:44:06.552Z,20.20
2022-11-08T11:46:41.738Z,20.20
2022-11-08T11:49:17.693Z,20.10
2022-11-08T11:51:45.691Z,20.00
2022-11-08T11:54:16.825Z,19.90
2022-11-08T11:56:52.569Z,19.80
2022-11-08T11:59:51.990Z,20.00
2022-11-08T12:02:51.790Z,19.80
2022-11-08T12:05:29.893Z,19.60
2022-11-08T12:08:08.878Z,19.40
2022-11-08T12:10:56.051Z,19.50
2022-11-08T12:13:30.843Z,19.30
2022-11-08T12:16:07.065Z,19.50
2022-11-08T12:18:53.649Z,19.50
2022-11-08T12:21:29.841Z,19.50
2022-11-08T12:24:15.116Z,19.30
2022-11-08T12:26:52.943Z,19.30
2022-11-08T12:29:30.457Z,19.10
2022-11-08T12:32:18.769Z,19.20
2022-11-08T12:34:55.287Z,19.30
2022-11-08T12:37:36.006Z,19.10
2022-11-08T12:40:16.427Z,19.00
2022-11-08T12:43:01.093Z,18.80
2022-11-08T12:45:52.652Z,18.70
2022-11-08T12:48:34.981Z,18.80
2022-11-08T12:51:13.896Z,18.90
2022-11-08T12:53:57.355Z,19.20
2022-11-08T12:56:29.379Z,19.20
2022-11-08T12:58:57.793Z,19.20
2022-11-08T13:01:26.311Z,19.30
2022-11-08T13:04:28.847Z,19.20
2022-11-08T13:07:02.055Z,19.30
2022-11-08T13:09:39.945Z,19.40
2022-11-08T13:12:22.118Z,19.20
2022-11-08T13:14:50.423Z,18.90
2022-11-08T13:17:22.812Z,18.80
2022-11-08T13:20:05.035Z,18.60
2022-11-08T13:22:45.042Z,18.40
2022-11-08T13:25:37.363Z,18.10
2022-11-08T13:28:37.459Z,17.80
2022-11-08T13:31:22.607Z,17.60
2022-11-08T13:34:10.205Z,17.60
2022-11-08T13:36:47.865Z,17.50
2022-11-08T13:39:46.439Z,17.30
2022-11-08T13:42:54.021Z,17.20
2022-11-08T13:45:29.474Z,17.10
2022-11-08T13:48:00.376Z,17.00
2022-11-08T13:50:50.409Z,17.00
2022-11-08T13:53:46.096Z,17.00
2022-11-08T13:56:42.708Z,16.80
2022-11-08T13:59:55.564Z,16.80
2022-11-08T14:02:40.933Z,16.80
2022-11-08T14:05:29.762Z,16.70
2022-11-08T14:08:19.974Z,16.70
2022-11-08T14:11:23.488Z,16.70
2022-11-08T14:14:22.550Z,16.50
2022-11-08T14:17:04.128Z,16.40
2022-11-08T14:19:33.738Z,16.50
2022-11-08T14:22:02.810Z,16.30
2022-11-08T14:24:36.158Z,16.40
2022-11-08T14:27:05.386Z,16.40
2022-11-08T14:29:33.501Z,16.30
2022-11-08T14:32:07.594Z,16.30
2022-11-08T14:34:37.742Z,16.30
2022-11-08T14:37:12.248Z,16.30
2022-11-08T14:39:40.185Z,16.10
2022-11-08T14:42:21.405Z,16.00
2022-11-08T14:44:49.677Z,15.90
2022-11-08T14:47:25.986Z,16.00
2022-11-08T14:49:54.057Z,15.90
2022-11-08T14:52:25.697Z,15.90
2022-11-08T14:55:03.009Z,15.80
2022-11-08T14:57:37.633Z,15.70
2022-11-08T15:00:14.382Z,15.70
2022-11-08T15:02:45.368Z,15.60
2022-11-08T15:05:32.611Z,15.50
2022-11-08T15:08:01.778Z,15.50
2022-11-08T15:10:30.386Z,15.40
2022-11-08T15:12:59.790Z,15.30
2022-11-08T15:15:32.124Z,15.20
2022-11-08T15:18:15.046Z,15.20
2022-11-08T15:20:54.974Z,15.20
2022-11-08T15:23:41.347Z,15.10
2022-11-08T15:26:24.724Z,15.00
2022-11-08T15:29:05.869Z,14.90
2022-11-08T15:31:37.667Z,14.80
2022-11-08T15:34:06.006Z,14.70
2022-11-08T15:36:36.441Z,14.70
2022-11-08T15:39:06.979Z,14.60
2022-11-08T15:41:39.022Z,14.60
2022-11-08T15:44:15.777Z,14.60
2022-11-08T15:46:43.942Z,14.50
2022-11-08T15:49:19.046Z,14.50
2022-11-08T15:51:47.059Z,14.50
2022-11-08T15:54:15.557Z,14.50
2022-11-08T15:56:44.205Z,14.40
2022-11-08T15:59:21.118Z,14.40
2022-11-08T16:01:55.882Z,14.40
2022-11-08T16:04:24.604Z,14.30
2022-11-08T16:06:52.709Z,14.40
2022-11-08T16:09:20.648Z,14.40
2022-11-08T16:11:49.616Z,14.30
2022-11-08T16:14:21.485Z,14.30
2022-11-08T16:16:49.396Z,14.20
2022-11-08T16:19:20.303Z,14.20
2022-11-08T16:21:48.240Z,14.20
2022-11-08T16:24:16.380Z,14.10
2022-11-08T16:26:45.730Z,14.10
2022-11-08T16:29:24.008Z,14.00
2022-11-08T16:31:52.264Z,14.10
2022-11-08T16:34:21.663Z,14.10
2022-11-08T16:36:50.708Z,14.00
2022-11-08T16:39:20.668Z,14.00
2022-11-08T16:41:48.544Z,14.00
2022-11-08T16:44:16.708Z,14.00
2022-11-08T16:46:46.366Z,14.00
2022-11-08T16:49:21.389Z,13.90
2022-11-08T16:51:49.989Z,13.90
2022-11-08T16:54:19.807Z,13.90
2022-11-08T16:56:47.906Z,13.90
2022-11-08T16:59:15.923Z,13.80
2022-11-08T17:01:45.320Z,13.80
2022-11-08T17:04:13.476Z,13.90
2022-11-08T17:06:41.412Z,13.80
2022-11-08T17:09:09.292Z,13.90
2022-11-08T17:11:39.641Z,13.80
2022-11-08T17:14:07.828Z,13.80
2022-11-08T17:16:35.715Z,13.90
2022-11-08T17:19:05.938Z,13.80
2022-11-08T17:21:49.588Z,13.70
2022-11-08T17:24:21.925Z,13.70
2022-11-08T17:26:51.019Z,13.70
2022-11-08T17:29:19.005Z,13.70
2022-11-08T17:31:46.918Z,13.70
2022-11-08T17:34:16.219Z,13.70
2022-11-08T17:36:44.115Z,13.70
2022-11-08T17:39:13.956Z,13.70
2022-11-08T17:41:41.946Z,13.60
2022-11-08T17:44:09.885Z,13.60
2022-11-08T17:46:37.761Z,13.60
2022-11-08T17:49:05.621Z,13.60
2022-11-08T17:51:35.246Z,13.60
2022-11-08T17:54:03.211Z,13.50
2022-11-08T17:56:31.147Z,13.60
2022-11-08T17:58:59.075Z,13.50
2022-11-08T18:01:27.002Z,13.50
2022-11-08T18:03:55.545Z,13.50
2022-11-08T18:06:23.600Z,13.50
2022-11-08T18:08:52.866Z,13.50
2022-11-08T18:11:20.705Z,13.50
2022-11-08T18:13:49.256Z,13.40
2022-11-08T18:16:19.008Z,13.40
2022-11-08T18:18:48.128Z,13.40
2022-11-08T18:21:17.166Z,13.40
2022-11-08T18:23:46.349Z,13.40
2022-11-08T18:26:16.799Z,13.30
2022-11-08T18:28:45.686Z,13.30
2022-11-08T18:31:15.611Z,13.30
2022-11-08T18:33:44.253Z,13.30
2022-11-08T18:36:15.603Z,13.30
2022-11-08T18:38:45.593Z,13.20
2022-11-08T18:41:16.233Z,13.20
2022-11-08T18:43:44.454Z,13.20
2022-11-08T18:46:14.783Z,13.20
2022-11-08T18:48:43.044Z,13.10
2022-11-08T18:51:13.046Z,13.10
2022-11-08T18:53:42.257Z,13.10
2022-11-08T18:56:11.098Z,13.10
2022-11-08T18:58:40.680Z,13.10
2022-11-08T19:01:08.940Z,13.00
2022-11-08T19:03:37.825Z,13.00
2022-11-08T19:06:06.457Z,12.90
2022-11-08T19:08:36.562Z,13.00
2022-11-08T19:11:06.337Z,12.90
2022-11-08T19:13:36.425Z,12.90
2022-11-08T19:16:07.290Z,12.90
2022-11-08T19:18:37.622Z,12.90
2022-11-08T19:21:07.309Z,12.90
2022-11-08T19:23:36.424Z,12.90
2022-11-08T19:26:06.293Z,12.90
2022-11-08T19:28:36.534Z,12.90
2022-11-08T19:31:06.742Z,12.90
2022-11-08T19:33:35.418Z,12.90
2022-11-08T19:36:05.250Z,12.90
2022-11-08T19:38:33.753Z,12.90
2022-11-08T19:41:02.816Z,12.90
2022-11-08T19:43:31.227Z,12.90
2022-11-08T19:46:03.228Z,12.90
2022-11-08T19:48:35.772Z,12.80
2022-11-08T19:51:05.051Z,12.80
2022-11-08T19:53:33.159Z,12.80
2022-11-08T19:56:02.146Z,12.80
2022-11-08T19:58:30.278Z,12.80
2022-11-08T20:01:01.523Z,12.70
2022-11-08T20:03:29.473Z,12.70
2022-11-08T20:05:58.718Z,12.70
2022-11-08T20:08:26.565Z,12.70
2022-11-08T20:10:54.417Z,12.70
2022-11-08T20:13:22.312Z,12.70
2022-11-08T20:15:50.557Z,12.70
2022-11-08T20:18:18.646Z,12.60
2022-11-08T20:20:46.790Z,12.60
2022-11-08T20:23:17.770Z,12.60
2022-11-08T20:25:48.043Z,12.60
2022-11-08T20:28:16.273Z,12.60
2022-11-08T20:30:44.402Z,12.60
2022-11-08T20:33:12.332Z,12.60
2022-11-08T20:35:40.225Z,12.50
2022-11-08T20:38:08.054Z,12.50
2022-11-08T20:40:38.920Z,12.50
2022-11-08T20:43:07.441Z,12.50
2022-11-08T20:45:35.360Z,12.40
2022-11-08T20:48:03.223Z,12.50
2022-11-08T20:50:31.080Z,12.40
2022-11-08T20:52:59.130Z,12.40
2022-11-08T20:55:27.722Z,12.40
2022-11-08T20:57:57.588Z,12.40
2022-11-08T21:00:52.170Z,12.30
2022-11-08T21:03:18.664Z,12.30
2022-11-08T21:05:51.785Z,12.30
2022-11-08T21:11:09.913Z,12.30
2022-11-08T21:13:41.326Z,12.30
2022-11-08T21:16:28.610Z,12.20
2022-11-08T21:18:58.302Z,12.20
2022-11-08T21:21:26.934Z,12.20
2022-11-08T21:23:55.181Z,12.20
2022-11-08T21:26:26.032Z,12.20
2022-11-08T21:28:55.743Z,12.20
2022-11-08T21:31:23.927Z,12.20
2022-11-08T21:33:51.875Z,12.20
2022-11-08T21:36:20.522Z,12.20
2022-11-08T21:38:48.454Z,12.20
2022-11-08T21:41:16.374Z,12.20
2022-11-08T21:43:45.592Z,12.20
2022-11-08T21:46:17.766Z,12.30
2022-11-08T21:48:46.420Z,12.30
2022-11-08T21:51:14.546Z,12.20
2022-11-08T21:53:52.383Z,12.20
2022-11-08T21:56:23.026Z,12.20
2022-11-08T21:58:51.068Z,12.20
2022-11-08T22:01:23.279Z,12.30
2022-11-08T22:03:55.150Z,12.30
2022-11-08T22:06:23.018Z,12.30
2022-11-08T22:08:50.873Z,12.30
2022-11-08T22:11:18.903Z,12.30
2022-11-08T22:13:46.727Z,12.30
2022-11-08T22:16:14.720Z,12.20
2022-11-08T22:19:04.683Z,12.20
2022-11-08T22:21:43.078Z,12.20
2022-11-08T22:24:13.403Z,12.20
2022-11-08T22:26:42.135Z,12.10
2022-11-08T22:29:10.259Z,12.10
2022-11-08T22:31:38.368Z,12.10
2022-11-08T22:34:09.222Z,12.00
2022-11-08T22:36:44.029Z,12.10
2022-11-08T22:39:14.065Z,12.00
2022-11-08T22:41:42.427Z,12.00
2022-11-08T22:44:12.353Z,12.10
2022-11-08T22:46:42.136Z,12.10
2022-11-08T22:49:11.990Z,12.20
2022-11-08T22:51:40.451Z,12.20
2022-11-08T22:54:08.660Z,12.20
2022-11-08T22:56:36.912Z,12.20
2022-11-08T22:59:05.015Z,12.30
2022-11-08T23:01:33.169Z,12.30
2022-11-08T23:04:01.156Z,12.30
2022-11-08T23:06:30.565Z,12.30
2022-11-08T23:08:58.567Z,12.40
2022-11-08T23:11:43.941Z,12.40
2022-11-08T23:14:35.387Z,12.40
2022-11-08T23:17:05.370Z,12.40
2022-11-08T23:19:50.652Z,12.40
2022-11-08T23:22:37.849Z,12.40
2022-11-08T23:25:06.450Z,12.40
2022-11-08T23:27:52.007Z,12.50
2022-11-08T23:30:38.420Z,12.50
2022-11-08T23:33:07.529Z,12.40
2022-11-08T23:35:35.800Z,12.40
2022-11-08T23:38:05.060Z,12.40
2022-11-08T23:40:51.224Z,12.30
2022-11-08T23:43:37.153Z,12.40
2022-11-08T23:46:07.336Z,12.40
2022-11-08T23:48:35.541Z,12.40
2022-11-08T23:51:07.101Z,12.40
2022-11-08T23:53:39.734Z,12.40
2022-11-08T23:56:08.200Z,12.40
2022-11-08T23:58:36.079Z,12.40
